Ana Sayfa
METAR-TAF:

METAR-TAF

Havaalanları :

Uşak, Türkiye

Uşak Havalimanı

Enlem: 38-40N, Boylam: 029-25E, yükseklik: 919 m

Güncel hava durumu gözlemi

Rapor saat 13:50 UTC de 54 dakika önce yapıldı.
Rüzgar güneydan 7 kt
Sıcaklık 13°C
Nem 47%
Basınç 1009 hPa
Görüş mesafesi 10 km veya daha fazla
3300 ft yükseklikte parçalı bulutlu
8000 ft yükseklikte parçalı çok bulutlu

METAR: LTBO 231350Z 18007KT 9999 SCT033 BKN080 13/02 Q1009

Saat: 17:44 (14:44 UTC)

Tahmin

Rapor saat 13:40 UTC de 1 saat ve 4 dakika önce yapıldı.
Ayın 23'si saat 15 UTC'den ayın 23'si saat 24 UTC'ye kadar geçerli Tahmin
Rüzgar değişken yönden 2 kt
Görüş mesafesi: 8000 m
3500 ft yükseklikte parçalı bulutlu
10000 ft yükseklikte parçalı çok bulutlu
Geçici
ayın 23'si saat 16 UTC'den ayın 23'si saat 20 UTC'ye kadar
hafif sağanak yağmurlar

TAF: LTBO 231340Z 2315/2324 VRB02KT 8000 SCT035 BKN100 TEMPO 2316/2320 -SHRA

4.000'den fazla havaalanı için hava durumu gözlemleri ve tahminleri (METAR ve TAF raporları).

Kullanılabilir istasyonlar harita üzerinde sarı ve kırmızı noktalarla gösterilir.

İstasyonun adını görmek için fareyi noktanın üzerinde gezdirin.

Sonrasında hava gözlem ve tahminlerini görmek için tıklayın.

Haritayı değiştirmek için: yaklaştırmak için siyah artı işaretli yeşil düğmeye ve uzaklaştırmak için de eksi işaretli düğmeye hızla tıklayın; bitişik haritalar için yeşil okları kullanın.


METAR-TAF: